Time;durP1;ratioP1;P1;durP2;ratioP2;P2;SDS_P1;SDS_P2;PMS_P1;PMS_P2;Temp;Humidity;BMP_temperature;BMP_pressure;BME280_temperature;BME280_humidity;BME280_pressure;Samples;Min_cycle;Max_cycle;Signal;HPM_P1;HPM_P2
2022/11/06 00:02:01;;;;;;;;;;;;;;;;;;;;;
2022/11/06 00:08:55;;;;;;;4.53;1.83;;;10.30;99.90;;;;;;5017152;28;20460;-86
2022/11/06 00:11:56;;;;;;;5.32;2.88;;;10.30;99.90;;;;;;4997894;28;20087;-86
2022/11/06 00:15:22;;;;;;;;;;;;;;;;;;;;;
2022/11/06 00:19:04;;;;;;;3.97;2.22;;;10.40;99.90;;;;;;5011055;28;20092;-87
2022/11/06 00:22:05;;;;;;;9.07;2.80;;;10.30;99.90;;;;;;5012541;28;20041;-87
2022/11/06 00:25:12;;;;;;;;;;;;;;;;;;;;;
2022/11/06 00:28:14;;;;;;;5.63;2.30;;;10.30;99.90;;;;;;5007938;28;20042;-87
2022/11/06 00:31:06;;;;;;;8.07;2.90;;;10.20;99.90;;;;;;4988917;28;20042;-87
2022/11/06 00:34:18;;;;;;;;;;;;;;;;;;;;;
2022/11/06 00:37:08;;;;;;;4.90;2.50;;;10.10;99.90;;;;;;4986140;28;20064;-87
2022/11/06 00:40:09;;;;;;;9.18;2.95;;;10.00;99.90;;;;;;5003929;28;20406;-88
2022/11/06 00:43:35;;;;;;;;;;;;;;;;;;;;;
2022/11/06 00:47:06;;;;;;;;;;;;;;;;;;;;;
2022/11/06 00:50:27;;;;;;;6.38;3.30;;;9.90;99.90;;;;;;5016686;28;20430;-86
2022/11/06 00:53:50;;;;;;;;;;;;;;;;;;;;;
2022/11/06 00:57:06;;;;;;;7.00;3.20;;;9.80;99.90;;;;;;5017670;28;20041;-86
2022/11/06 01:00:22;;;;;;;8.70;3.33;;;9.80;99.90;;;;;;5004606;28;20093;-86
2022/11/06 01:03:22;;;;;;;7.47;3.33;;;9.80;99.90;;;;;;4987616;28;20513;-86
2022/11/06 01:06:36;;;;;;;8.20;3.95;;;9.80;99.90;;;;;;4997431;28;20510;-86
2022/11/06 01:10:19;;;;;;;6.53;3.38;;;9.80;99.90;;;;;;5012470;28;20518;-86
2022/11/06 01:13:46;;;;;;;5.82;3.17;;;9.70;99.90;;;;;;5017201;28;20048;-86
2022/11/06 01:16:35;;;;;;;6.93;3.58;;;9.70;99.90;;;;;;5011767;28;20045;-86
2022/11/06 01:19:44;;;;;;;6.13;3.67;;;9.70;99.90;;;;;;5022008;28;20253;-86
2022/11/06 01:22:54;;;;;;;9.95;4.15;;;9.50;99.90;;;;;;5029828;28;20117;-85
2022/11/06 01:26:22;;;;;;;;;;;;;;;;;;;;;
2022/11/06 01:29:32;;;;;;;6.40;3.42;;;9.70;99.90;;;;;;4975639;28;20386;-86
2022/11/06 01:32:34;;;;;;;8.55;3.88;;;9.70;99.90;;;;;;5006051;28;20438;-86
2022/11/06 01:36:06;;;;;;;6.32;3.20;;;9.60;99.90;;;;;;5008837;28;20121;-86
2022/11/06 01:39:26;;;;;;;8.43;4.15;;;9.60;99.90;;;;;;5013770;28;20072;-87
2022/11/06 01:42:37;;;;;;;7.88;4.43;;;10.30;99.90;;;;;;5025747;28;20508;-86
2022/11/06 01:45:58;;;;;;;7.32;4.30;;;9.60;99.90;;;;;;5009111;28;20077;-86
2022/11/06 01:49:20;;;;;;;;;;;;;;;;;;;;;
2022/11/06 01:52:51;;;;;;;;;;;;;;;;;;;;;
2022/11/06 01:56:16;;;;;;;8.10;4.05;;;9.60;99.90;;;;;;5017172;28;20037;-86
2022/11/06 01:59:44;;;;;;;10.52;3.30;;;9.70;99.90;;;;;;5034141;28;20049;-85
2022/11/06 02:02:52;;;;;;;11.15;4.15;;;9.80;99.90;;;;;;5011568;28;20046;-85
2022/11/06 02:05:49;;;;;;;9.75;4.50;;;9.60;99.90;;;;;;4981482;28;20050;-86
2022/11/06 02:08:32;;;;;;;7.80;4.22;;;9.60;99.90;;;;;;5000874;28;20136;-86
2022/11/06 02:12:01;;;;;;;9.52;4.15;;;9.60;99.90;;;;;;4994728;28;20105;-86
2022/11/06 02:15:47;;;;;;;8.32;4.05;;;9.50;99.90;;;;;;4991359;28;20039;-86
2022/11/06 02:19:23;;;;;;;5.65;3.70;;;9.50;99.90;;;;;;5012907;28;20042;-87
2022/11/06 02:22:51;;;;;;;10.88;4.22;;;9.50;99.90;;;;;;4992427;28;20058;-86
2022/11/06 02:26:15;;;;;;;7.47;3.63;;;9.60;99.90;;;;;;4984927;28;20052;-86
2022/11/06 02:29:46;;;;;;;;;;;;;;;;;;;;;
2022/11/06 02:33:14;;;;;;;7.07;4.03;;;9.50;99.90;;;;;;5002066;28;20049;-86
2022/11/06 02:36:57;;;;;;;;;;;;;;;;;;;;;
2022/11/06 02:40:10;;;;;;;;;;;;;;;;;;;;;
2022/11/06 02:43:22;;;;;;;7.78;4.05;;;9.60;99.90;;;;;;4945962;28;20066;-86
2022/11/06 02:46:32;;;;;;;7.40;4.22;;;9.60;99.90;;;;;;4977497;28;20182;-86
2022/11/06 02:50:16;;;;;;;5.88;3.40;;;9.60;99.90;;;;;;5002507;28;20480;-86
2022/11/06 02:53:21;;;;;;;;;;;;;;;;;;;;;
2022/11/06 02:57:02;;;;;;;;;;;;;;;;;;;;;
2022/11/06 03:00:37;;;;;;;6.00;3.67;;;9.60;99.90;;;;;;4989305;28;20373;-86
2022/11/06 03:04:04;;;;;;;7.68;3.70;;;9.60;99.90;;;;;;4992561;28;20050;-86
2022/11/06 03:07:27;;;;;;;5.80;3.70;;;9.60;99.90;;;;;;4993847;28;20042;-86
2022/11/06 03:11:07;;;;;;;6.18;3.58;;;9.60;99.90;;;;;;5003787;28;20402;-86
2022/11/06 03:14:52;;;;;;;;;;;;;;;;;;;;;
2022/11/06 03:18:31;;;;;;;11.32;4.05;;;9.60;99.90;;;;;;5023812;28;20045;-86
2022/11/06 03:22:00;;;;;;;7.18;4.28;;;9.60;99.90;;;;;;5009278;28;20107;-86
2022/11/06 03:25:32;;;;;;;7.68;4.70;;;9.60;99.90;;;;;;4982549;28;20052;-86
2022/11/06 03:29:02;;;;;;;7.10;3.63;;;9.60;99.90;;;;;;5011102;28;20054;-87
2022/11/06 03:32:56;;;;;;;;;;;;;;;;;;;;;
2022/11/06 03:36:24;;;;;;;;;;;;;;;;;;;;;
2022/11/06 03:39:39;;;;;;;8.90;3.80;;;9.60;99.90;;;;;;5001540;28;20088;-86
2022/11/06 03:42:46;;;;;;;7.45;3.55;;;9.60;99.90;;;;;;4979345;28;20058;-86
2022/11/06 03:46:20;;;;;;;6.28;3.72;;;9.60;99.90;;;;;;5003650;28;20120;-86
2022/11/06 03:49:49;;;;;;;7.10;4.18;;;9.70;99.90;;;;;;4996433;28;20049;-86
2022/11/06 03:53:32;;;;;;;;;;;;;;;;;;;;;
2022/11/06 03:56:56;;;;;;;;;;;;;;;;;;;;;
2022/11/06 04:00:19;;;;;;;7.97;3.97;;;9.70;99.90;;;;;;4958311;28;20062;-86
2022/11/06 04:03:34;;;;;;;;;;;;;;;;;;;;;
2022/11/06 04:07:28;;;;;;;;;;;;;;;;;;;;;
2022/11/06 04:14:27;;;;;;;11.30;3.75;;;9.70;99.90;;;;;;4951400;28;20043;-86
2022/11/06 04:17:29;;;;;;;6.50;3.97;;;9.70;99.90;;;;;;4897182;29;20055;-86
2022/11/06 04:28:00;;;;;;;6.50;3.80;;;9.70;99.90;;;;;;4945145;29;20056;-87
2022/11/06 04:31:58;;;;;;;;;;;;;;;;;;;;;
2022/11/06 04:35:32;;;;;;;;;;;;;;;;;;;;;
2022/11/06 04:38:59;;;;;;;;;;;;;;;;;;;;;
2022/11/06 04:42:22;;;;;;;7.68;3.53;;;10.20;99.90;;;;;;4950686;28;20051;-86
2022/11/06 04:45:39;;;;;;;9.52;3.88;;;10.10;99.90;;;;;;4963015;28;20619;-86
2022/11/06 04:49:19;;;;;;;6.18;3.80;;;9.70;99.90;;;;;;4946271;28;20057;-86
2022/11/06 04:52:58;;;;;;;8.05;3.63;;;9.70;99.90;;;;;;4948602;28;20493;-86
2022/11/06 04:56:23;;;;;;;;;;;;;;;;;;;;;
2022/11/06 04:59:33;;;;;;;5.03;3.17;;;9.80;99.90;;;;;;4955123;28;20110;-86
2022/11/06 05:02:45;;;;;;;7.22;3.33;;;9.80;99.90;;;;;;4964412;28;20082;-86
2022/11/06 05:05:45;;;;;;;7.82;3.42;;;9.70;99.90;;;;;;4951185;28;20046;-86
2022/11/06 05:08:54;;;;;;;9.43;3.70;;;9.20;99.90;;;;;;4962013;28;20079;-86
2022/11/06 05:12:05;;;;;;;;;;;;;;;;;;;;;
2022/11/06 05:15:44;;;;;;;5.10;3.40;;;9.70;99.90;;;;;;5017345;28;20081;-86
2022/11/06 05:19:05;;;;;;;;;;;;;;;;;;;;;
2022/11/06 05:26:08;;;;;;;;;;;;;;;;;;;;;
2022/11/06 05:29:37;;;;;;;8.32;3.22;;;9.70;99.90;;;;;;5012404;28;20049;-85
2022/11/06 05:32:50;;;;;;;10.20;3.90;;;9.90;99.90;;;;;;4997179;28;20062;-86
2022/11/06 05:36:04;;;;;;;4.75;2.85;;;9.70;99.90;;;;;;5009876;28;20045;-86
2022/11/06 05:39:23;;;;;;;6.22;3.65;;;9.70;99.90;;;;;;5010112;28;20478;-86
2022/11/06 05:42:48;;;;;;;;;;;;;;;;;;;;;
2022/11/06 05:46:01;;;;;;;7.43;2.70;;;9.70;99.90;;;;;;5005764;28;20053;-86
2022/11/06 05:48:50;;;;;;;;;;;9.70;99.90;;;;;;4991652;28;20498;-86
2022/11/06 05:51:57;;;;;;;6.35;2.88;;;9.70;99.90;;;;;;5014919;28;19922;-86
2022/11/06 05:54:55;;;;;;;5.10;2.45;;;9.70;99.90;;;;;;4989072;28;20108;-87
2022/11/06 05:58:22;;;;;;;;;;;;;;;;;;;;;
2022/11/06 06:01:28;;;;;;;6.82;3.22;;;9.70;99.90;;;;;;5014731;28;20455;-86
2022/11/06 06:04:55;;;;;;;5.43;2.53;;;9.70;99.90;;;;;;5014167;28;20046;-86
2022/11/06 06:08:04;;;;;;;6.60;3.30;;;9.70;99.90;;;;;;5015487;28;20167;-86
2022/11/06 06:11:00;;;;;;;5.00;2.70;;;9.70;99.90;;;;;;5004765;28;20049;-86
2022/11/06 06:14:21;;;;;;;9.88;2.92;;;9.70;99.90;;;;;;5000138;28;20050;-86
2022/11/06 06:17:52;;;;;;;;;;;;;;;;;;;;;
2022/11/06 06:21:15;;;;;;;;;;;;;;;;;;;;;
2022/11/06 06:24:35;;;;;;;6.60;2.97;;;9.70;99.90;;;;;;5016112;28;20103;-86
2022/11/06 06:27:49;;;;;;;7.05;3.00;;;9.70;99.90;;;;;;5021610;28;20100;-86
2022/11/06 06:31:06;;;;;;;8.50;2.97;;;9.80;99.90;;;;;;5016035;28;20108;-86
2022/11/06 06:34:31;;;;;;;8.05;2.97;;;9.80;99.90;;;;;;5016087;28;20053;-86
2022/11/06 06:38:05;;;;;;;8.50;2.55;;;9.70;99.90;;;;;;5019349;28;20046;-87
2022/11/06 06:40:45;;;;;;;;;;;9.80;99.90;;;;;;4993744;28;20100;-86
2022/11/06 06:44:11;;;;;;;6.68;2.30;;;9.20;99.90;;;;;;5021581;28;19975;-86
2022/11/06 06:47:19;;;;;;;;;;;;;;;;;;;;;
2022/11/06 06:50:22;;;;;;;;;;;;;;;;;;;;;
2022/11/06 06:53:20;;;;;;;5.38;2.30;;;9.70;99.90;;;;;;4982595;28;20529;-86
2022/11/06 06:56:04;;;;;;;6.93;2.35;;;9.70;99.90;;;;;;5014867;28;20052;-86
2022/11/06 06:58:58;;;;;;;6.30;2.50;;;9.80;99.90;;;;;;5003069;28;20062;-85
2022/11/06 07:02:01;;;;;;;7.20;2.50;;;9.80;99.90;;;;;;5020521;28;20041;-86
2022/11/06 07:05:16;;;;;;;5.40;2.50;;;9.70;99.90;;;;;;5019966;28;20053;-86
2022/11/06 07:08:16;;;;;;;3.42;2.22;;;9.80;99.90;;;;;;5006361;28;20072;-86
2022/11/06 07:11:08;;;;;;;6.40;2.10;;;9.70;99.90;;;;;;4966274;28;20049;-86
2022/11/06 07:14:19;;;;;;;4.82;2.03;;;9.70;99.90;;;;;;5013743;28;20041;-86
2022/11/06 07:17:12;;;;;;;5.13;2.00;;;9.70;99.90;;;;;;4986125;28;20051;-86
2022/11/06 07:20:13;;;;;;;11.27;2.63;;;9.70;99.90;;;;;;5015248;28;20497;-86
2022/11/06 07:23:17;;;;;;;;;;;;;;;;;;;;;
2022/11/06 07:26:07;;;;;;;6.88;2.47;;;10.50;99.90;;;;;;5011643;28;20080;-86
2022/11/06 07:29:17;;;;;;;6.45;1.80;;;9.30;99.90;;;;;;5006621;28;20477;-86
2022/11/06 07:32:20;;;;;;;4.47;1.67;;;9.80;99.90;;;;;;5007089;28;20451;-86
2022/11/06 07:35:31;;;;;;;7.82;1.95;;;9.80;99.90;;;;;;5008724;28;20092;-86
2022/11/06 07:38:20;;;;;;;4.60;1.95;;;9.80;99.90;;;;;;5007050;28;20514;-86
2022/11/06 07:41:18;;;;;;;3.88;1.55;;;9.80;99.90;;;;;;5004849;28;20045;-87
2022/11/06 07:44:18;;;;;;;;;;;;;;;;;;;;;
2022/11/06 07:47:20;;;;;;;5.95;1.48;;;10.60;99.90;;;;;;5005404;28;20124;-85
2022/11/06 07:50:22;;;;;;;5.55;1.50;;;9.90;99.90;;;;;;5020372;28;20045;-86
2022/11/06 07:53:33;;;;;;;;;;;;;;;;;;;;;
2022/11/06 07:56:26;;;;;;;6.25;1.77;;;10.00;99.90;;;;;;5001787;28;20048;-85
2022/11/06 07:59:15;;;;;;;4.80;1.50;;;10.00;99.90;;;;;;5017030;28;20072;-85
2022/11/06 08:02:12;;;;;;;5.82;1.38;;;10.00;99.90;;;;;;4999216;28;20066;-87
2022/11/06 08:05:13;;;;;;;;;;;;;;;;;;;;;
2022/11/06 08:08:07;;;;;;;4.10;1.40;;;10.00;99.90;;;;;;5024771;28;20088;-86
2022/11/06 08:11:26;;;;;;;4.60;1.60;;;10.10;99.90;;;;;;5016835;28;20549;-86
2022/11/06 08:14:32;;;;;;;3.13;1.10;;;10.00;99.90;;;;;;5007382;28;20343;-86
2022/11/06 08:17:29;;;;;;;5.97;1.38;;;10.00;99.90;;;;;;5019773;28;20512;-86
2022/11/06 08:20:05;;;;;;;3.75;1.30;;;10.00;99.90;;;;;;5007383;28;20034;-87
2022/11/06 08:23:23;;;;;;;;;;;;;;;;;;;;;
2022/11/06 08:26:09;;;;;;;1.65;1.10;;;10.00;99.90;;;;;;4998513;28;20053;-86
2022/11/06 08:29:10;;;;;;;4.60;1.00;;;10.10;99.90;;;;;;5023657;28;20096;-86
2022/11/06 08:32:27;;;;;;;5.07;1.48;;;10.10;99.90;;;;;;5016654;28;20041;-87
2022/11/06 08:35:22;;;;;;;4.88;1.73;;;10.10;99.90;;;;;;5000739;28;20057;-86
2022/11/06 08:38:15;;;;;;;4.18;1.00;;;10.10;99.90;;;;;;5024643;28;20044;-87
2022/11/06 08:41:34;;;;;;;2.58;0.98;;;10.10;99.90;;;;;;5027449;28;20470;-86
2022/11/06 08:44:41;;;;;;;5.38;1.10;;;10.20;99.90;;;;;;5031215;28;20044;-87
2022/11/06 08:47:46;;;;;;;3.55;1.10;;;10.20;99.90;;;;;;4993474;28;20037;-87
2022/11/06 08:50:48;;;;;;;3.55;0.90;;;10.60;99.90;;;;;;5003184;28;20057;-87
2022/11/06 08:53:49;;;;;;;3.20;1.10;;;10.30;99.90;;;;;;5012953;28;20056;-86
2022/11/06 08:57:00;;;;;;;;;;;;;;;;;;;;;
2022/11/06 09:00:04;;;;;;;2.15;0.93;;;10.30;99.90;;;;;;5026921;28;20042;-87
2022/11/06 09:02:51;;;;;;;3.63;1.10;;;10.30;99.90;;;;;;5021691;28;20045;-86
2022/11/06 09:05:30;;;;;;;3.60;0.93;;;10.30;99.90;;;;;;4980809;28;20054;-86
2022/11/06 09:08:00;;;;;;;;;;;10.40;99.90;;;;;;4990410;28;20053;-86
2022/11/06 09:10:27;;;;;;;3.55;1.00;;;10.40;99.90;;;;;;5022007;28;19929;-88
2022/11/06 09:12:54;;;;;;;4.75;1.52;;;10.50;99.90;;;;;;4997271;28;20557;-89
2022/11/06 09:15:23;;;;;;;6.28;1.25;;;10.60;99.90;;;;;;5004834;28;20046;-88
2022/11/06 09:18:35;;;;;;;2.95;1.10;;;10.70;99.90;;;;;;4999104;28;20049;-89
2022/11/06 09:21:34;;;;;;;1.65;0.88;;;10.70;99.90;;;;;;4912398;29;20108;-86
2022/11/06 09:24:37;;;;;;;4.75;1.17;;;10.80;99.90;;;;;;4945660;29;20428;-87
2022/11/06 09:27:32;;;;;;;4.80;0.98;;;10.90;99.90;;;;;;4934564;29;20052;-86
2022/11/06 09:30:43;;;;;;;;;;;;;;;;;;;;;
2022/11/06 09:33:37;;;;;;;1.45;0.80;;;10.90;99.90;;;;;;4913288;29;20114;-86
2022/11/06 09:36:34;;;;;;;4.82;0.90;;;11.10;99.90;;;;;;4919597;29;20510;-90
2022/11/06 09:39:51;;;;;;;4.75;1.20;;;11.00;99.90;;;;;;4930729;29;20075;-86
2022/11/06 09:43:14;;;;;;;;;;;;;;;;;;;;;
2022/11/06 09:46:30;;;;;;;4.53;1.02;;;11.00;99.90;;;;;;4930296;29;20130;-88
2022/11/06 09:49:56;;;;;;;;;;;;;;;;;;;;;
2022/11/06 09:53:03;;;;;;;2.75;0.73;;;10.90;99.90;;;;;;4960757;28;20103;-89
2022/11/06 09:56:32;;;;;;;;;;;;;;;;;;;;;
2022/11/06 09:59:41;;;;;;;5.07;1.38;;;11.00;99.90;;;;;;4994879;28;20069;-86
2022/11/06 10:02:42;;;;;;;4.75;1.02;;;11.00;99.90;;;;;;4996975;28;20060;-91
2022/11/06 10:05:30;;;;;;;2.38;1.45;;;11.10;99.90;;;;;;5000186;28;20069;-87
2022/11/06 10:08:05;;;;;;;2.00;0.68;;;11.10;99.90;;;;;;4992329;28;20050;-88
2022/11/06 10:10:53;;;;;;;5.18;1.25;;;11.10;99.90;;;;;;4980299;28;20042;-90
2022/11/06 10:13:49;;;;;;;2.10;0.70;;;11.10;99.90;;;;;;4996183;28;20069;-88
2022/11/06 10:16:33;;;;;;;1.55;0.80;;;11.10;99.90;;;;;;5003727;28;20045;-87
2022/11/06 10:19:09;;;;;;;7.68;1.05;;;11.20;99.90;;;;;;4997130;28;20049;-88
2022/11/06 10:22:07;;;;;;;4.90;0.85;;;11.20;99.90;;;;;;5007200;28;20062;-87
2022/11/06 10:24:59;;;;;;;4.20;1.13;;;11.20;99.90;;;;;;4989795;28;20478;-88
2022/11/06 10:27:48;;;;;;;4.35;0.73;;;11.20;99.90;;;;;;5004098;28;20407;-88
2022/11/06 10:30:22;;;;;;;1.40;0.50;;;11.20;99.90;;;;;;4980588;28;20446;-90
2022/11/06 10:33:08;;;;;;;3.42;1.10;;;11.20;99.90;;;;;;5014105;28;20112;-89
2022/11/06 10:35:52;;;;;;;5.15;0.95;;;11.20;99.90;;;;;;5022947;28;20037;-89
2022/11/06 10:38:28;;;;;;;1.63;0.80;;;11.20;99.90;;;;;;4998311;28;20049;-88
2022/11/06 10:41:14;;;;;;;2.60;0.65;;;11.30;99.90;;;;;;4996665;28;20085;-89
2022/11/06 10:44:19;;;;;;;4.63;0.80;;;11.40;99.90;;;;;;4997081;28;20072;-88
2022/11/06 10:47:14;;;;;;;3.20;0.82;;;11.30;99.90;;;;;;4999812;28;20087;-90
2022/11/06 10:49:49;;;;;;;3.92;0.85;;;11.40;99.90;;;;;;5003722;28;20077;-88
2022/11/06 10:52:46;;;;;;;3.20;0.88;;;11.40;99.90;;;;;;5011717;28;20046;-87
2022/11/06 10:55:39;;;;;;;5.60;1.33;;;11.50;99.90;;;;;;4995934;23;20077;-88
2022/11/06 10:58:20;;;;;;;1.80;0.70;;;11.50;99.90;;;;;;5010385;28;20077;-87
2022/11/06 11:00:49;;;;;;;3.35;0.80;;;11.60;99.90;;;;;;5006721;28;20061;-87
2022/11/06 11:03:37;;;;;;;1.88;0.88;;;11.60;99.90;;;;;;4997244;28;20052;-89
2022/11/06 11:08:48;;;;;;;10.20;1.52;;;11.70;99.90;;;;;;5002899;28;20046;-88
2022/11/06 11:11:34;;;;;;;2.60;0.80;;;11.80;99.90;;;;;;4993056;28;20146;-88
2022/11/06 11:14:04;;;;;;;0.90;0.68;;;11.80;99.90;;;;;;5012518;28;20073;-87
2022/11/06 11:17:32;;;;;;;;;;;;;;;;;;;;;
2022/11/06 11:20:47;;;;;;;3.47;0.65;;;11.90;99.90;;;;;;4958979;28;20578;-90
2022/11/06 11:24:03;;;;;;;3.35;0.50;;;12.70;99.90;;;;;;4957330;28;20562;-89
2022/11/06 11:27:45;;;;;;;3.85;0.82;;;12.00;99.90;;;;;;4945895;28;20039;-89
2022/11/06 11:35:26;;;;;;;;;;;;;;;;;;;;;
2022/11/06 11:48:33;;;;;;;2.67;0.50;;;11.70;99.90;;;;;;4984247;26;20410;-89
2022/11/06 11:51:39;;;;;;;0.65;0.40;;;11.60;99.90;;;;;;4989855;28;20056;-90
2022/11/06 11:54:25;;;;;;;1.60;0.60;;;11.60;99.90;;;;;;5020652;28;20133;-89
2022/11/06 11:57:35;;;;;;;3.13;0.70;;;11.60;99.90;;;;;;5021502;28;20110;-90
2022/11/06 12:00:34;;;;;;;5.68;0.60;;;11.40;99.90;;;;;;5053342;23;20052;-88
2022/11/06 12:04:09;;;;;;;;;;;;;;;;;;;;;
2022/11/06 12:07:04;;;;;;;3.78;0.60;;;12.00;99.90;;;;;;5000914;28;20080;-88
2022/11/06 12:09:44;;;;;;;2.78;0.60;;;11.60;99.90;;;;;;4984683;28;20077;-89
2022/11/06 12:12:59;;;;;;;;;;;;;;;;;;;;;
2022/11/06 12:16:19;;;;;;;4.60;0.40;;;11.60;99.90;;;;;;4925595;29;20139;-88
2022/11/06 12:19:15;;;;;;;1.10;0.52;;;11.50;99.90;;;;;;4950973;23;20061;-90
2022/11/06 12:23:00;;;;;;;;;;;;;;;;;;;;;
2022/11/06 12:29:36;;;;;;;2.63;0.70;;;11.80;99.90;;;;;;5005875;28;20096;-88
2022/11/06 12:32:57;;;;;;;3.40;0.60;;;11.80;99.90;;;;;;5005484;28;20137;-89
2022/11/06 12:36:08;;;;;;;1.65;0.60;;;11.80;99.90;;;;;;4982980;28;20072;-88
2022/11/06 12:47:03;;;;;;;4.38;0.70;;;11.90;99.90;;;;;;5016051;28;20036;-89
2022/11/06 12:50:32;;;;;;;2.55;0.68;;;12.10;99.90;;;;;;4993999;28;20555;-90
2022/11/06 12:53:47;;;;;;;1.58;0.50;;;12.20;99.90;;;;;;5006865;28;20617;-91
2022/11/06 12:57:09;;;;;;;3.38;0.52;;;12.20;99.90;;;;;;4982322;28;20050;-88
2022/11/06 13:00:23;;;;;;;;;;;;;;;;;;;;;
2022/11/06 13:03:48;;;;;;;2.63;0.50;;;12.30;99.90;;;;;;4998509;28;20442;-89
2022/11/06 13:07:13;;;;;;;3.20;0.60;;;12.40;99.90;;;;;;5010175;28;20042;-90
2022/11/06 13:10:20;;;;;;;;;;;;;;;;;;;;;
2022/11/06 13:14:21;;;;;;;;;;;;;;;;;;;;;
2022/11/06 13:18:00;;;;;;;;;;;;;;;;;;;;;
2022/11/06 13:21:44;;;;;;;;;;;;;;;;;;;;;
2022/11/06 13:25:19;;;;;;;1.58;0.60;;;12.20;99.90;;;;;;4897082;29;20054;-91
2022/11/06 13:28:23;;;;;;;;;;;;;;;;;;;;;
2022/11/06 13:31:30;;;;;;;2.67;0.50;;;12.10;99.90;;;;;;4922248;29;20087;-89
2022/11/06 13:34:23;;;;;;;2.60;0.40;;;12.10;99.90;;;;;;4905134;29;20063;-91
2022/11/06 13:37:53;;;;;;;1.15;0.40;;;12.30;99.90;;;;;;4925231;29;21520;-88
2022/11/06 13:41:04;;;;;;;2.08;0.55;;;12.30;99.90;;;;;;4894172;29;20062;-89
2022/11/06 13:44:21;;;;;;;2.45;0.50;;;11.70;99.90;;;;;;4895580;29;20095;-88
2022/11/06 13:47:36;;;;;;;;;;;;;;;;;;;;;
2022/11/06 13:51:00;;;;;;;;;;;;;;;;;;;;;
2022/11/06 13:54:07;;;;;;;;;;;;;;;;;;;;;
2022/11/06 13:57:16;;;;;;;0.80;0.40;;;12.10;99.90;;;;;;5021068;28;20053;-88
2022/11/06 14:00:54;;;;;;;3.78;0.60;;;12.10;99.90;;;;;;5023634;28;20521;-87
2022/11/06 14:03:59;;;;;;;1.02;0.50;;;12.10;99.90;;;;;;4946804;28;20134;-88
2022/11/06 14:07:06;;;;;;;1.98;0.40;;;12.00;99.90;;;;;;4959459;28;20137;-88
2022/11/06 14:10:29;;;;;;;1.65;0.50;;;12.00;99.90;;;;;;4945115;28;20041;-88
2022/11/06 14:13:30;;;;;;;2.75;0.38;;;12.00;99.90;;;;;;4973138;28;20047;-87
2022/11/06 14:16:42;;;;;;;;;;;;;;;;;;;;;
2022/11/06 14:19:41;;;;;;;3.80;0.50;;;12.00;99.90;;;;;;4948131;28;20062;-88
2022/11/06 14:22:56;;;;;;;3.50;0.50;;;11.90;99.90;;;;;;4933320;28;20090;-88
2022/11/06 14:26:04;;;;;;;2.33;0.30;;;11.90;99.90;;;;;;4936257;28;20461;-88
2022/11/06 14:29:49;;;;;;;1.88;0.70;;;11.90;99.90;;;;;;4961671;28;20043;-88
2022/11/06 14:33:04;;;;;;;2.78;0.45;;;11.80;99.90;;;;;;4952053;28;20051;-89
2022/11/06 14:35:58;;;;;;;1.42;0.50;;;11.90;99.90;;;;;;4994773;28;20051;-87
2022/11/06 14:38:46;;;;;;;1.42;0.60;;;11.90;99.90;;;;;;5022116;28;20460;-87
2022/11/06 14:41:42;;;;;;;2.47;0.50;;;11.80;99.90;;;;;;4990436;28;20034;-88
2022/11/06 14:44:52;;;;;;;3.95;0.55;;;11.80;99.90;;;;;;4986975;28;20181;-88
2022/11/06 14:48:31;;;;;;;;;;;;;;;;;;;;;
2022/11/06 14:51:37;;;;;;;2.03;0.60;;;11.80;99.90;;;;;;5011683;28;20038;-88
2022/11/06 14:58:41;;;;;;;2.88;0.50;;;11.70;99.90;;;;;;5011882;28;20072;-88
2022/11/06 15:02:02;;;;;;;;;;;;;;;;;;;;;
2022/11/06 15:05:23;;;;;;;2.20;0.68;;;12.30;99.90;;;;;;5009063;28;20045;-89
2022/11/06 15:08:23;;;;;;;3.17;0.70;;;12.40;99.90;;;;;;5007522;28;20073;-89
2022/11/06 15:11:20;;;;;;;1.90;0.50;;;11.50;99.90;;;;;;4997157;28;20116;-89
2022/11/06 15:14:24;;;;;;;1.38;0.55;;;11.60;99.90;;;;;;5010378;28;20058;-88
2022/11/06 15:17:34;;;;;;;;;;;;;;;;;;;;;
2022/11/06 15:20:40;;;;;;;1.85;0.40;;;11.30;99.90;;;;;;5029376;28;20514;-89
2022/11/06 15:24:07;;;;;;;0.90;0.40;;;11.90;99.90;;;;;;5022872;28;20041;-88
2022/11/06 15:27:11;;;;;;;3.45;0.65;;;10.90;99.90;;;;;;4945701;28;20578;-88
2022/11/06 15:30:09;;;;;;;1.60;0.50;;;11.20;99.90;;;;;;4952916;28;20327;-89
2022/11/06 15:33:25;;;;;;;0.70;0.30;;;11.10;99.90;;;;;;4942691;28;20412;-88
2022/11/06 15:36:27;;;;;;;1.95;0.50;;;11.00;99.90;;;;;;4945377;28;20059;-89
2022/11/06 15:39:36;;;;;;;0.80;0.45;;;11.00;99.90;;;;;;4938283;28;20130;-89
2022/11/06 15:42:34;;;;;;;2.75;0.57;;;10.90;99.90;;;;;;4951955;29;20043;-91
2022/11/06 15:45:42;;;;;;;0.70;0.40;;;10.90;99.90;;;;;;4943534;28;20147;-88
2022/11/06 15:48:42;;;;;;;;;;;;;;;;;;;;;
2022/11/06 15:51:43;;;;;;;;;;;;;;;;;;;;;
2022/11/06 15:54:46;;;;;;;1.70;0.68;;;10.70;99.90;;;;;;4910099;28;20069;-89
2022/11/06 15:57:35;;;;;;;2.47;0.43;;;10.70;99.90;;;;;;4957222;28;20139;-89
2022/11/06 16:00:42;;;;;;;2.53;0.55;;;10.60;99.90;;;;;;4960600;28;20110;-88
2022/11/06 16:03:47;;;;;;;2.65;0.60;;;10.80;99.90;;;;;;5019597;28;20038;-88
2022/11/06 16:06:20;;;;;;;2.13;0.60;;;10.60;99.90;;;;;;4999886;28;20118;-88
2022/11/06 16:09:28;;;;;;;;;;;;;;;;;;;;;
2022/11/06 16:12:31;;;;;;;2.75;0.75;;;10.50;99.90;;;;;;5021614;28;20042;-89
2022/11/06 16:16:03;;;;;;;2.38;0.70;;;10.50;99.90;;;;;;5027003;28;20528;-87
2022/11/06 16:19:29;;;;;;;2.22;0.95;;;10.40;99.90;;;;;;5029729;28;20533;-88
2022/11/06 16:23:07;;;;;;;3.38;1.00;;;10.40;99.90;;;;;;5023278;28;20508;-88
2022/11/06 16:26:34;;;;;;;;;;;;;;;;;;;;;
2022/11/06 16:29:54;;;;;;;;;;;;;;;;;;;;;
2022/11/06 16:33:17;;;;;;;7.32;0.90;;;10.20;99.90;;;;;;5040185;28;20048;-87
2022/11/06 16:36:38;;;;;;;;;;;;;;;;;;;;;
2022/11/06 16:39:58;;;;;;;3.10;1.23;;;10.20;99.90;;;;;;5001788;28;20122;-88
2022/11/06 16:43:42;;;;;;;;;;;;;;;;;;;;;
2022/11/06 16:47:07;;;;;;;;;;;;;;;;;;;;;
2022/11/06 16:50:48;;;;;;;1.58;0.90;;;10.10;99.90;;;;;;5017675;28;20050;-89
2022/11/06 16:54:16;;;;;;;;;;;;;;;;;;;;;
2022/11/06 16:57:52;;;;;;;;;;;;;;;;;;;;;
2022/11/06 17:01:25;;;;;;;5.00;1.20;;;9.90;99.90;;;;;;4973239;28;20109;-88
2022/11/06 17:04:56;;;;;;;3.63;1.25;;;9.90;99.90;;;;;;4956376;28;20051;-88
2022/11/06 17:08:28;;;;;;;3.13;1.25;;;9.90;99.90;;;;;;4934746;29;20052;-88
2022/11/06 17:11:40;;;;;;;1.77;0.80;;;10.20;99.90;;;;;;4911373;29;20095;-88
2022/11/06 17:14:35;;;;;;;3.50;0.95;;;9.80;99.90;;;;;;4921183;29;20051;-89
2022/11/06 17:18:04;;;;;;;5.45;0.77;;;9.70;99.90;;;;;;4874308;29;20414;-88
2022/11/06 17:21:35;;;;;;;1.20;0.50;;;9.60;99.90;;;;;;4941856;29;20394;-88
2022/11/06 17:24:58;;;;;;;;;;;;;;;;;;;;;
2022/11/06 17:28:18;;;;;;;3.08;0.50;;;9.40;99.90;;;;;;4887786;29;20147;-88
2022/11/06 17:31:40;;;;;;;3.33;0.35;;;9.20;99.90;;;;;;4935066;29;20106;-87
2022/11/06 17:35:00;;;;;;;0.93;0.40;;;8.60;99.90;;;;;;4943945;28;20051;-88
2022/11/06 17:38:31;;;;;;;4.05;0.73;;;9.60;99.90;;;;;;4933054;29;20050;-88
2022/11/06 17:41:42;;;;;;;0.20;0.20;;;8.80;99.90;;;;;;4963634;28;20059;-87
2022/11/06 17:44:37;;;;;;;1.98;0.20;;;9.70;99.90;;;;;;4956303;28;20181;-86
2022/11/06 17:48:00;;;;;;;;;;;;;;;;;;;;;
2022/11/06 17:55:05;;;;;;;;;;;;;;;;;;;;;
2022/11/06 17:58:37;;;;;;;;;;;;;;;;;;;;;
2022/11/06 18:01:57;;;;;;;0.88;0.55;;;8.70;99.90;;;;;;5013619;28;20150;-88
2022/11/06 18:05:19;;;;;;;1.23;0.20;;;8.20;99.90;;;;;;4995879;28;20056;-88
2022/11/06 18:12:16;;;;;;;0.50;0.30;;;8.20;99.90;;;;;;4873090;29;20418;-89
2022/11/06 18:15:52;;;;;;;;;;;;;;;;;;;;;
2022/11/06 18:19:06;;;;;;;0.75;0.30;;;8.10;99.90;;;;;;4878575;29;20069;-90
2022/11/06 18:22:14;;;;;;;0.30;0.20;;;8.10;99.90;;;;;;4876697;29;20053;-90
2022/11/06 18:25:44;;;;;;;;;;;;;;;;;;;;;
2022/11/06 18:29:10;;;;;;;;;;;;;;;;;;;;;
2022/11/06 18:32:10;;;;;;;1.45;0.47;;;8.00;99.90;;;;;;4879153;29;20072;-88
2022/11/06 18:35:13;;;;;;;0.60;0.30;;;8.00;99.90;;;;;;4878525;29;20056;-89
2022/11/06 18:38:13;;;;;;;0.57;0.45;;;8.00;99.90;;;;;;4869662;29;20058;-88
2022/11/06 18:41:42;;;;;;;;;;;;;;;;;;;;;
2022/11/06 18:49:12;;;;;;;;;;;;;;;;;;;;;
2022/11/06 18:53:07;;;;;;;;;;;;;;;;;;;;;
2022/11/06 19:00:31;;;;;;;2.25;0.40;;;8.00;99.90;;;;;;4821018;29;20102;-90
2022/11/06 19:04:09;;;;;;;;;;;;;;;;;;;;;
2022/11/06 19:06:47;;;;;;;2.00;0.50;;;9.10;99.90;;;;;;4817180;29;20088;-89
2022/11/06 19:09:58;;;;;;;;;;;;;;;;;;;;;
2022/11/06 19:17:42;;;;;;;2.30;0.75;;;8.00;99.90;;;;;;4954132;23;20440;-89
2022/11/06 19:25:03;;;;;;;1.23;0.60;;;8.00;99.90;;;;;;4893227;29;20089;-87
2022/11/06 19:28:18;;;;;;;0.90;0.60;;;7.70;99.90;;;;;;4902528;29;20096;-89
2022/11/06 19:31:27;;;;;;;;;;;;;;;;;;;;;
2022/11/06 19:38:48;;;;;;;0.70;0.63;;;8.00;99.90;;;;;;4880367;29;20107;-92
2022/11/06 19:41:36;;;;;;;1.50;0.93;;;8.00;99.90;;;;;;4820178;29;20112;-91
2022/11/06 19:44:02;;;;;;;1.23;0.70;;;8.00;99.90;;;;;;4804328;29;20081;-91
2022/11/06 19:49:58;;;;;;;1.15;0.70;;;8.00;99.90;;;;;;4830613;29;20137;-91
2022/11/06 19:52:44;;;;;;;2.00;0.80;;;9.00;99.90;;;;;;4783575;29;20099;-90
2022/11/06 19:55:15;;;;;;;1.80;1.00;;;7.50;99.90;;;;;;4812926;29;20098;-90
2022/11/06 19:58:02;;;;;;;1.42;0.80;;;8.10;99.90;;;;;;4871191;29;20510;-91
2022/11/06 20:00:47;;;;;;;;;;;;;;;;;;;;;
2022/11/06 20:03:49;;;;;;;1.20;0.70;;;8.10;99.90;;;;;;4864527;29;20049;-91
2022/11/06 20:06:27;;;;;;;1.23;0.80;;;8.20;99.90;;;;;;4878441;29;20056;-93
2022/11/06 20:20:03;;;;;;;2.13;0.70;;;8.20;99.90;;;;;;4893820;29;20049;-93